createdAt,value
2023-04-26T00:00:00.229Z,11.70
2023-04-26T00:00:13.497Z,11.70
2023-04-26T00:00:25.422Z,11.70
2023-04-26T00:00:37.186Z,11.70
2023-04-26T00:00:49.054Z,11.70
2023-04-26T00:01:06.764Z,11.70
2023-04-26T00:01:18.591Z,11.70
2023-04-26T00:01:30.890Z,11.60
2023-04-26T00:01:43.182Z,11.60
2023-04-26T00:01:54.916Z,11.70
2023-04-26T00:02:06.875Z,11.60
2023-04-26T00:02:18.856Z,11.60
2023-04-26T00:02:30.910Z,11.60
2023-04-26T00:02:42.889Z,11.60
2023-04-26T00:02:55.812Z,11.60
2023-04-26T00:03:07.993Z,11.60
2023-04-26T00:03:20.994Z,11.60
2023-04-26T00:03:33.196Z,11.60
2023-04-26T00:03:45.970Z,11.60
2023-04-26T00:04:00.233Z,11.60
2023-04-26T00:04:12.359Z,11.60
2023-04-26T00:04:25.451Z,11.60
2023-04-26T00:04:39.129Z,11.60
2023-04-26T00:04:59.003Z,11.60
2023-04-26T00:05:11.581Z,11.60
2023-04-26T00:05:25.456Z,11.60
2023-04-26T00:05:38.341Z,11.50
2023-04-26T00:05:50.847Z,11.50
2023-04-26T00:06:05.937Z,11.50
2023-04-26T00:06:20.107Z,11.50
2023-04-26T00:06:31.913Z,11.50
2023-04-26T00:06:43.779Z,11.50
2023-04-26T00:06:55.768Z,11.50
2023-04-26T00:07:07.843Z,11.50
2023-04-26T00:07:20.284Z,11.50
2023-04-26T00:07:32.103Z,11.50
2023-04-26T00:07:44.488Z,11.50
2023-04-26T00:07:56.296Z,11.50
2023-04-26T00:08:09.281Z,11.60
2023-04-26T00:08:21.216Z,11.60
2023-04-26T00:08:33.167Z,11.50
2023-04-26T00:08:44.927Z,11.50
2023-04-26T00:08:56.782Z,11.50
2023-04-26T00:09:08.656Z,11.50
2023-04-26T00:09:20.485Z,11.50
2023-04-26T00:09:32.237Z,11.50
2023-04-26T00:09:44.817Z,11.50
2023-04-26T00:09:57.094Z,11.50
2023-04-26T00:10:09.633Z,11.50
2023-04-26T00:10:21.746Z,11.40
2023-04-26T00:10:33.526Z,11.40
2023-04-26T00:10:46.339Z,11.50
2023-04-26T00:10:58.207Z,11.40
2023-04-26T00:11:10.081Z,11.40
2023-04-26T00:11:21.880Z,11.40
2023-04-26T00:11:33.832Z,11.40
2023-04-26T00:11:45.687Z,11.40
2023-04-26T00:11:57.572Z,11.40
2023-04-26T00:12:11.941Z,11.40
2023-04-26T00:12:23.812Z,11.30
2023-04-26T00:12:36.995Z,11.30
2023-04-26T00:12:48.799Z,11.40
2023-04-26T00:13:00.670Z,11.30
2023-04-26T00:13:12.487Z,11.30
2023-04-26T00:13:24.279Z,11.30
2023-04-26T00:13:37.229Z,11.30
2023-04-26T00:13:49.014Z,11.30
2023-04-26T00:14:00.970Z,11.30
2023-04-26T00:14:12.795Z,11.30
2023-04-26T00:14:24.635Z,11.30
2023-04-26T00:14:36.405Z,11.30
2023-04-26T00:14:48.237Z,11.30
2023-04-26T00:15:00.830Z,11.30
2023-04-26T00:15:12.684Z,11.30
2023-04-26T00:15:24.576Z,11.30
2023-04-26T00:15:36.691Z,11.30
2023-04-26T00:15:48.475Z,11.30
2023-04-26T00:16:00.387Z,11.30
2023-04-26T00:16:14.027Z,11.30
2023-04-26T00:16:25.864Z,11.30
2023-04-26T00:16:37.935Z,11.30
2023-04-26T00:16:49.884Z,11.30
2023-04-26T00:17:03.435Z,11.30
2023-04-26T00:17:15.530Z,11.20
2023-04-26T00:17:27.424Z,11.20
2023-04-26T00:17:39.298Z,11.20
2023-04-26T00:17:52.036Z,11.20
2023-04-26T00:18:04.170Z,11.20
2023-04-26T00:18:17.069Z,11.20
2023-04-26T00:18:28.864Z,11.20
2023-04-26T00:18:40.676Z,11.20
2023-04-26T00:18:52.824Z,11.20
2023-04-26T00:19:04.874Z,11.20
2023-04-26T00:19:17.692Z,11.20
2023-04-26T00:19:29.490Z,11.20
2023-04-26T00:19:41.335Z,11.20
2023-04-26T00:19:53.171Z,11.20
2023-04-26T00:20:08.456Z,11.20
2023-04-26T00:20:20.295Z,11.20
2023-04-26T00:20:32.143Z,11.20
2023-04-26T00:20:44.023Z,11.20
2023-04-26T00:20:55.871Z,11.20
2023-04-26T00:21:07.711Z,11.20
2023-04-26T00:21:19.495Z,11.20
2023-04-26T00:21:31.921Z,11.20
2023-04-26T00:21:43.872Z,11.20
2023-04-26T00:21:55.718Z,11.20
2023-04-26T00:22:08.773Z,11.20
2023-04-26T00:22:20.588Z,11.20
2023-04-26T00:22:32.544Z,11.20
2023-04-26T00:22:44.744Z,11.20
2023-04-26T00:22:56.642Z,11.20
2023-04-26T00:23:10.587Z,11.20
2023-04-26T00:23:22.446Z,11.10
2023-04-26T00:23:36.654Z,11.20
2023-04-26T00:23:48.460Z,11.10
2023-04-26T00:24:00.366Z,11.10
2023-04-26T00:24:12.286Z,11.10
2023-04-26T00:24:24.137Z,11.10
2023-04-26T00:24:36.187Z,11.10
2023-04-26T00:24:48.008Z,11.10
2023-04-26T00:24:59.926Z,11.10
2023-04-26T00:25:12.680Z,11.10
2023-04-26T00:25:24.457Z,11.10
2023-04-26T00:25:36.894Z,11.10
2023-04-26T00:25:48.808Z,11.10
2023-04-26T00:26:00.811Z,11.10
2023-04-26T00:26:12.623Z,11.10
2023-04-26T00:26:24.967Z,11.10
2023-04-26T00:26:36.936Z,11.10
2023-04-26T00:26:48.719Z,11.10
2023-04-26T00:27:01.489Z,11.10
2023-04-26T00:27:13.597Z,11.10
2023-04-26T00:27:25.567Z,11.10
2023-04-26T00:27:37.434Z,11.10
2023-04-26T00:27:50.065Z,11.10
2023-04-26T00:28:02.025Z,11.10
2023-04-26T00:28:13.776Z,11.10
2023-04-26T00:28:25.652Z,11.10
2023-04-26T00:28:37.430Z,11.10
2023-04-26T00:28:49.462Z,11.00
2023-04-26T00:29:04.552Z,11.00
2023-04-26T00:29:16.360Z,11.00
2023-04-26T00:29:28.140Z,11.00
2023-04-26T00:29:42.117Z,11.00
2023-04-26T00:29:53.939Z,10.90
2023-04-26T00:30:06.486Z,11.00
2023-04-26T00:30:18.366Z,10.90
2023-04-26T00:30:30.254Z,10.90
2023-04-26T00:30:47.828Z,10.90
2023-04-26T00:30:59.676Z,10.90
2023-04-26T00:31:17.705Z,11.00
2023-04-26T00:31:29.692Z,10.90
2023-04-26T00:31:41.524Z,10.90
2023-04-26T00:31:53.494Z,10.90
2023-04-26T00:32:06.103Z,10.90
2023-04-26T00:32:17.998Z,10.90
2023-04-26T00:32:31.034Z,10.90
2023-04-26T00:32:42.847Z,10.90
2023-04-26T00:32:54.733Z,10.90
2023-04-26T00:33:06.623Z,10.90
2023-04-26T00:33:18.482Z,10.90
2023-04-26T00:33:30.594Z,10.90
2023-04-26T00:33:42.717Z,10.90
2023-04-26T00:33:54.556Z,10.90
2023-04-26T00:34:06.611Z,10.90
2023-04-26T00:34:18.537Z,10.90
2023-04-26T00:34:34.274Z,10.90
2023-04-26T00:34:46.079Z,10.90
2023-04-26T00:34:57.859Z,10.90
2023-04-26T00:35:09.924Z,10.90
2023-04-26T00:35:21.872Z,10.90
2023-04-26T00:35:33.686Z,10.90
2023-04-26T00:35:45.566Z,10.90
2023-04-26T00:35:57.338Z,10.80
2023-04-26T00:36:09.134Z,10.90
2023-04-26T00:36:20.887Z,10.90
2023-04-26T00:36:32.774Z,10.90
2023-04-26T00:36:44.555Z,10.90
2023-04-26T00:36:56.605Z,10.90
2023-04-26T00:37:08.402Z,10.90
2023-04-26T00:37:20.186Z,10.90
2023-04-26T00:37:32.157Z,10.90
2023-04-26T00:37:43.933Z,10.90
2023-04-26T00:37:56.008Z,10.90
2023-04-26T00:38:07.788Z,10.90
2023-04-26T00:38:19.638Z,10.90
2023-04-26T00:38:31.691Z,10.90
2023-04-26T00:38:43.448Z,10.90
2023-04-26T00:38:55.757Z,10.90
2023-04-26T00:39:08.857Z,10.90
2023-04-26T00:39:21.744Z,10.90
2023-04-26T00:39:33.959Z,10.90
2023-04-26T00:39:45.781Z,10.90
2023-04-26T00:39:57.581Z,10.90
2023-04-26T00:40:10.549Z,10.90
2023-04-26T00:40:22.324Z,10.90
2023-04-26T00:40:35.555Z,10.90
2023-04-26T00:40:47.362Z,10.90
2023-04-26T00:40:59.150Z,10.90
2023-04-26T00:41:11.147Z,10.90
2023-04-26T00:41:22.971Z,10.90
2023-04-26T00:41:35.205Z,10.90
2023-04-26T00:41:48.052Z,10.90
2023-04-26T00:41:59.879Z,10.90
2023-04-26T00:42:11.717Z,10.90
2023-04-26T00:42:23.498Z,10.90
2023-04-26T00:42:35.405Z,10.90
2023-04-26T00:42:47.182Z,10.80
2023-04-26T00:42:59.230Z,10.90
2023-04-26T00:43:11.173Z,10.90
2023-04-26T00:43:22.945Z,10.90
2023-04-26T00:43:34.735Z,10.90
2023-04-26T00:43:46.522Z,10.90
2023-04-26T00:43:58.568Z,10.90
2023-04-26T00:44:10.372Z,10.80
2023-04-26T00:44:22.220Z,10.80
2023-04-26T00:44:33.993Z,10.80
2023-04-26T00:44:45.904Z,10.90
2023-04-26T00:44:57.831Z,10.80
2023-04-26T00:45:09.868Z,10.80
2023-04-26T00:45:21.642Z,10.80
2023-04-26T00:45:33.563Z,10.80
2023-04-26T00:45:45.889Z,10.80
2023-04-26T00:45:57.753Z,10.80
2023-04-26T00:46:10.059Z,10.80
2023-04-26T00:46:22.094Z,10.80
2023-04-26T00:46:34.058Z,10.80
2023-04-26T00:46:45.879Z,10.80
2023-04-26T00:46:57.763Z,10.80
2023-04-26T00:47:09.754Z,10.80
2023-04-26T00:47:21.571Z,10.80
2023-04-26T00:47:33.667Z,10.80
2023-04-26T00:47:45.488Z,10.80
2023-04-26T00:47:57.325Z,10.80
2023-04-26T00:48:09.458Z,10.80
2023-04-26T00:48:21.226Z,10.80
2023-04-26T00:48:33.591Z,10.80
2023-04-26T00:48:45.467Z,10.80
2023-04-26T00:48:57.347Z,10.80
2023-04-26T00:49:09.787Z,10.80
2023-04-26T00:49:23.258Z,10.80
2023-04-26T00:49:35.103Z,10.80
2023-04-26T00:49:47.003Z,10.80
2023-04-26T00:49:59.493Z,10.80
2023-04-26T00:50:11.365Z,10.80
2023-04-26T00:50:23.165Z,10.80
2023-04-26T00:50:35.016Z,10.80
2023-04-26T00:50:47.971Z,10.80
2023-04-26T00:50:59.767Z,10.80
2023-04-26T00:51:11.594Z,10.80
2023-04-26T00:51:23.422Z,10.80
2023-04-26T00:51:35.332Z,10.80
2023-04-26T00:51:47.113Z,10.80
2023-04-26T00:51:59.007Z,10.80
2023-04-26T00:52:10.793Z,10.80
2023-04-26T00:52:22.797Z,10.80
2023-04-26T00:52:34.681Z,10.80
2023-04-26T00:52:47.224Z,10.80
2023-04-26T00:52:59.134Z,10.80
2023-04-26T00:53:10.921Z,10.80
2023-04-26T00:53:23.296Z,10.80
2023-04-26T00:53:35.675Z,10.80
2023-04-26T00:53:47.496Z,10.80
2023-04-26T00:54:00.166Z,10.80
2023-04-26T00:54:12.872Z,10.80
2023-04-26T00:54:25.742Z,10.90
2023-04-26T00:54:37.498Z,10.80
2023-04-26T00:54:49.295Z,10.80
2023-04-26T00:55:01.398Z,10.90
2023-04-26T00:55:13.286Z,10.90
2023-04-26T00:55:27.219Z,10.90
2023-04-26T00:55:39.233Z,10.90
2023-04-26T00:55:51.698Z,10.90
2023-04-26T00:56:03.776Z,10.90
2023-04-26T00:56:15.583Z,10.90
2023-04-26T00:56:27.354Z,10.90
2023-04-26T00:56:39.227Z,10.90
2023-04-26T00:56:53.226Z,10.90
2023-04-26T00:57:07.247Z,10.90
2023-04-26T00:57:19.024Z,10.90
2023-04-26T00:57:31.432Z,10.80
2023-04-26T00:57:44.580Z,10.80
2023-04-26T00:57:56.439Z,10.80
2023-04-26T00:58:08.491Z,10.80
2023-04-26T00:58:20.422Z,10.80
2023-04-26T00:58:32.153Z,10.80
2023-04-26T00:58:43.989Z,10.80
2023-04-26T00:58:56.534Z,10.80
2023-04-26T00:59:08.491Z,10.80
2023-04-26T00:59:21.178Z,10.80
2023-04-26T00:59:35.274Z,10.80
2023-04-26T00:59:47.290Z,10.80
2023-04-26T00:59:59.172Z,10.80
2023-04-26T01:00:11.764Z,10.80
2023-04-26T01:00:24.077Z,10.80
2023-04-26T01:00:35.866Z,10.80
2023-04-26T01:00:47.985Z,10.80
2023-04-26T01:00:59.825Z,10.80
2023-04-26T01:01:11.712Z,10.80
2023-04-26T01:01:23.548Z,10.80
2023-04-26T01:01:35.742Z,10.80
2023-04-26T01:01:49.128Z,10.80
2023-04-26T01:02:01.045Z,10.80
2023-04-26T01:02:13.396Z,10.70
2023-04-26T01:02:25.760Z,10.70
2023-04-26T01:02:38.632Z,10.70
2023-04-26T01:02:51.574Z,10.70
2023-04-26T01:03:03.804Z,10.70
2023-04-26T01:03:15.971Z,10.70
2023-04-26T01:03:28.394Z,10.70
2023-04-26T01:03:40.517Z,10.70
2023-04-26T01:03:52.770Z,10.70
2023-04-26T01:04:04.736Z,10.70
2023-04-26T01:04:17.924Z,10.70
2023-04-26T01:04:30.481Z,10.70
2023-04-26T01:04:42.277Z,10.70
2023-04-26T01:04:54.202Z,10.70
2023-04-26T01:05:06.737Z,10.70
2023-04-26T01:05:18.606Z,10.70
2023-04-26T01:05:30.385Z,10.70
2023-04-26T01:05:42.166Z,10.70
2023-04-26T01:05:53.988Z,10.70
2023-04-26T01:06:05.995Z,10.70
2023-04-26T01:06:17.951Z,10.70
2023-04-26T01:06:33.899Z,10.70
2023-04-26T01:06:48.262Z,10.70
2023-04-26T01:07:00.741Z,10.70
2023-04-26T01:07:12.499Z,10.70
2023-04-26T01:07:24.279Z,10.70
2023-04-26T01:07:36.954Z,10.70
2023-04-26T01:07:48.789Z,10.70
2023-04-26T01:08:02.545Z,10.70
2023-04-26T01:08:17.282Z,10.70
2023-04-26T01:08:29.193Z,10.70
2023-04-26T01:08:41.546Z,10.70
2023-04-26T01:08:53.742Z,10.70
2023-04-26T01:09:11.060Z,10.70
2023-04-26T01:09:22.963Z,10.70
2023-04-26T01:09:34.841Z,10.70
2023-04-26T01:09:46.949Z,10.70
2023-04-26T01:09:58.737Z,10.70
2023-04-26T01:10:10.897Z,10.70
2023-04-26T01:10:22.958Z,10.70
2023-04-26T01:10:35.012Z,10.70
2023-04-26T01:10:47.954Z,10.70
2023-04-26T01:10:59.710Z,10.70
2023-04-26T01:11:11.615Z,10.60
2023-04-26T01:11:23.480Z,10.60
2023-04-26T01:11:37.027Z,10.60
2023-04-26T01:11:48.891Z,10.70
2023-04-26T01:12:01.069Z,10.70
2023-04-26T01:12:13.092Z,10.70
2023-04-26T01:12:25.117Z,10.60
2023-04-26T01:12:38.116Z,10.60
2023-04-26T01:12:49.963Z,10.70
2023-04-26T01:13:01.924Z,10.70
2023-04-26T01:13:14.198Z,10.70
2023-04-26T01:13:26.306Z,10.70
2023-04-26T01:13:38.377Z,10.70
2023-04-26T01:13:50.187Z,10.60
2023-04-26T01:14:01.984Z,10.70
2023-04-26T01:14:15.132Z,10.60
2023-04-26T01:14:27.208Z,10.60
2023-04-26T01:14:39.871Z,10.60
2023-04-26T01:14:51.900Z,10.60
2023-04-26T01:15:04.498Z,10.60
2023-04-26T01:15:16.796Z,10.60
2023-04-26T01:15:30.417Z,10.60
2023-04-26T01:15:48.540Z,10.60
2023-04-26T01:16:00.467Z,10.60
2023-04-26T01:16:12.290Z,10.60
2023-04-26T01:16:24.140Z,10.60
2023-04-26T01:16:36.041Z,10.70
2023-04-26T01:16:48.100Z,10.60
2023-04-26T01:16:59.972Z,10.60
2023-04-26T01:17:11.890Z,10.60
2023-04-26T01:17:24.712Z,10.60
2023-04-26T01:17:37.939Z,10.60
2023-04-26T01:17:49.941Z,10.60
2023-04-26T01:18:03.200Z,10.60
2023-04-26T01:18:15.268Z,10.60
2023-04-26T01:18:27.265Z,10.60
2023-04-26T01:18:39.526Z,10.60
2023-04-26T01:18:54.781Z,10.60
2023-04-26T01:19:12.409Z,10.60
2023-04-26T01:19:25.610Z,10.60
2023-04-26T01:19:37.796Z,10.60
2023-04-26T01:19:49.822Z,10.60
2023-04-26T01:20:01.624Z,10.60
2023-04-26T01:20:13.989Z,10.60
2023-04-26T01:20:26.221Z,10.60
2023-04-26T01:20:38.170Z,10.60
2023-04-26T01:20:52.120Z,10.60
2023-04-26T01:21:05.145Z,10.60
2023-04-26T01:21:23.361Z,10.60
2023-04-26T01:21:35.171Z,10.60
2023-04-26T01:21:46.940Z,10.60
2023-04-26T01:21:58.721Z,10.50
2023-04-26T01:22:10.791Z,10.60
2023-04-26T01:22:22.922Z,10.50
2023-04-26T01:22:35.108Z,10.50
2023-04-26T01:22:46.993Z,10.50
2023-04-26T01:22:58.901Z,10.50
2023-04-26T01:23:11.799Z,10.50
2023-04-26T01:23:23.733Z,10.50
2023-04-26T01:23:35.525Z,10.50
2023-04-26T01:23:47.380Z,10.50
2023-04-26T01:23:59.139Z,10.50
2023-04-26T01:24:11.733Z,10.50
2023-04-26T01:24:23.510Z,10.50
2023-04-26T01:24:35.326Z,10.50
2023-04-26T01:24:49.991Z,10.50
2023-04-26T01:25:01.936Z,10.60
2023-04-26T01:25:13.725Z,10.50
2023-04-26T01:25:25.473Z,10.50
2023-04-26T01:25:37.543Z,10.50
2023-04-26T01:25:49.295Z,10.50
2023-04-26T01:26:01.094Z,10.50
2023-04-26T01:26:13.036Z,10.50
2023-04-26T01:26:24.855Z,10.50
2023-04-26T01:26:37.376Z,10.60
2023-04-26T01:26:49.197Z,10.50
2023-04-26T01:27:01.784Z,10.50
2023-04-26T01:27:13.681Z,10.50
2023-04-26T01:27:25.451Z,10.50
2023-04-26T01:27:37.281Z,10.50
2023-04-26T01:27:49.025Z,10.50
2023-04-26T01:28:00.791Z,10.50
2023-04-26T01:28:12.552Z,10.50
2023-04-26T01:28:24.374Z,10.50
2023-04-26T01:28:36.809Z,10.50
2023-04-26T01:28:49.757Z,10.50
2023-04-26T01:29:01.773Z,10.50
2023-04-26T01:29:16.579Z,10.50
2023-04-26T01:29:28.362Z,10.50
2023-04-26T01:29:40.143Z,10.50
2023-04-26T01:29:52.020Z,10.50
2023-04-26T01:30:04.224Z,10.50
2023-04-26T01:30:16.064Z,10.50
2023-04-26T01:30:27.842Z,10.50
2023-04-26T01:30:39.634Z,10.50
2023-04-26T01:30:51.557Z,10.50
2023-04-26T01:31:03.430Z,10.50
2023-04-26T01:31:15.437Z,10.50
2023-04-26T01:31:27.354Z,10.50
2023-04-26T01:31:39.136Z,10.50
2023-04-26T01:31:51.027Z,10.50
2023-04-26T01:32:02.834Z,10.40
2023-04-26T01:32:14.614Z,10.50
2023-04-26T01:32:26.424Z,10.50
2023-04-26T01:32:38.348Z,10.50
2023-04-26T01:32:50.193Z,10.50
2023-04-26T01:33:02.023Z,10.50
2023-04-26T01:33:15.848Z,10.50
2023-04-26T01:33:27.695Z,10.50
2023-04-26T01:33:39.476Z,10.50
2023-04-26T01:33:51.305Z,10.50
2023-04-26T01:34:03.232Z,10.50
2023-04-26T01:34:15.082Z,10.50
2023-04-26T01:34:27.032Z,10.50
2023-04-26T01:34:39.056Z,10.50
2023-04-26T01:34:50.855Z,10.50
2023-04-26T01:35:02.741Z,10.50
2023-04-26T01:35:14.767Z,10.50
2023-04-26T01:35:26.720Z,10.40
2023-04-26T01:35:38.651Z,10.40
2023-04-26T01:35:50.410Z,10.40
2023-04-26T01:36:02.399Z,10.40
2023-04-26T01:36:14.135Z,10.40
2023-04-26T01:36:27.112Z,10.50
2023-04-26T01:36:38.972Z,10.50
2023-04-26T01:36:50.742Z,10.40
2023-04-26T01:37:02.593Z,10.50
2023-04-26T01:37:14.541Z,10.40
2023-04-26T01:37:26.719Z,10.40
2023-04-26T01:37:38.578Z,10.40
2023-04-26T01:37:50.429Z,10.40
2023-04-26T01:38:02.210Z,10.40
2023-04-26T01:38:14.749Z,10.40
2023-04-26T01:38:26.535Z,10.40
2023-04-26T01:38:38.371Z,10.40
2023-04-26T01:38:50.482Z,10.40
2023-04-26T01:39:02.619Z,10.40
2023-04-26T01:39:14.493Z,10.40
2023-04-26T01:39:26.238Z,10.40
2023-04-26T01:39:38.068Z,10.40
2023-04-26T01:39:50.014Z,10.40
2023-04-26T01:40:01.930Z,10.40
2023-04-26T01:40:13.962Z,10.40
2023-04-26T01:40:25.860Z,10.40
2023-04-26T01:40:37.848Z,10.40
2023-04-26T01:40:49.666Z,10.40
2023-04-26T01:41:01.482Z,10.40
2023-04-26T01:41:13.269Z,10.40
2023-04-26T01:41:25.163Z,10.30
2023-04-26T01:41:36.969Z,10.40
2023-04-26T01:41:48.754Z,10.40
2023-04-26T01:42:00.693Z,10.30
2023-04-26T01:42:12.464Z,10.30
2023-04-26T01:42:24.245Z,10.30
2023-04-26T01:42:36.142Z,10.30
2023-04-26T01:42:48.025Z,10.40
2023-04-26T01:43:00.836Z,10.40
2023-04-26T01:43:12.958Z,10.40
2023-04-26T01:43:24.787Z,10.40
2023-04-26T01:43:36.745Z,10.40
2023-04-26T01:43:48.484Z,10.40
2023-04-26T01:44:00.807Z,10.40
2023-04-26T01:44:12.562Z,10.40
2023-04-26T01:44:24.412Z,10.40
2023-04-26T01:44:36.569Z,10.40
2023-04-26T01:44:48.377Z,10.40
2023-04-26T01:45:00.136Z,10.40
2023-04-26T01:45:11.986Z,10.30
2023-04-26T01:45:24.195Z,10.40
2023-04-26T01:45:35.992Z,10.40
2023-04-26T01:45:50.697Z,10.40
2023-04-26T01:46:02.645Z,10.40
2023-04-26T01:46:14.480Z,10.40
2023-04-26T01:46:26.425Z,10.40
2023-04-26T01:46:38.357Z,10.40
2023-04-26T01:46:50.199Z,10.40
2023-04-26T01:47:02.060Z,10.40
2023-04-26T01:47:13.796Z,10.40
2023-04-26T01:47:26.618Z,10.40
2023-04-26T01:47:38.495Z,10.40
2023-04-26T01:47:50.551Z,10.40
2023-04-26T01:48:02.423Z,10.40
2023-04-26T01:48:14.235Z,10.40
2023-04-26T01:48:26.045Z,10.40
2023-04-26T01:48:37.900Z,10.40
2023-04-26T01:48:49.751Z,10.40
2023-04-26T01:49:01.546Z,10.40
2023-04-26T01:49:13.432Z,10.40
2023-04-26T01:49:25.234Z,10.40
2023-04-26T01:49:36.977Z,10.50
2023-04-26T01:49:48.886Z,10.50
2023-04-26T01:50:00.750Z,10.50
2023-04-26T01:50:12.728Z,10.50
2023-04-26T01:50:24.687Z,10.50
2023-04-26T01:50:36.481Z,10.50
2023-04-26T01:50:48.764Z,10.50
2023-04-26T01:51:00.659Z,10.50
2023-04-26T01:51:13.223Z,10.50
2023-04-26T01:51:24.976Z,10.50
2023-04-26T01:51:36.813Z,10.50
2023-04-26T01:51:48.657Z,10.50
2023-04-26T01:52:01.292Z,10.50
2023-04-26T01:52:13.133Z,10.50
2023-04-26T01:52:24.956Z,10.50
2023-04-26T01:52:36.852Z,10.50
2023-04-26T01:52:48.672Z,10.50
2023-04-26T01:53:00.480Z,10.50
2023-04-26T01:53:12.430Z,10.50
2023-04-26T01:53:24.233Z,10.50
2023-04-26T01:53:36.008Z,10.50
2023-04-26T01:53:47.768Z,10.50
2023-04-26T01:53:59.585Z,10.50
2023-04-26T01:54:11.433Z,10.50
2023-04-26T01:54:23.194Z,10.50
2023-04-26T01:54:35.038Z,10.50
2023-04-26T01:54:46.817Z,10.50
2023-04-26T01:54:58.584Z,10.50
2023-04-26T01:55:10.442Z,10.50
2023-04-26T01:55:22.313Z,10.50
2023-04-26T01:55:34.325Z,10.50
2023-04-26T01:55:46.198Z,10.50
2023-04-26T01:56:01.512Z,10.50
2023-04-26T01:56:13.355Z,10.50
2023-04-26T01:56:25.270Z,10.50
2023-04-26T01:56:37.058Z,10.50
2023-04-26T01:56:48.869Z,10.50
2023-04-26T01:57:00.919Z,10.50
2023-04-26T01:57:12.723Z,10.50
2023-04-26T01:57:24.504Z,10.50
2023-04-26T01:57:36.808Z,10.50
2023-04-26T01:57:48.601Z,10.50
2023-04-26T01:58:00.421Z,10.50
2023-04-26T01:58:12.254Z,10.50
2023-04-26T01:58:24.128Z,10.50
2023-04-26T01:58:36.087Z,10.50
2023-04-26T01:58:47.896Z,10.50
2023-04-26T01:58:59.718Z,10.50
2023-04-26T01:59:11.603Z,10.50
2023-04-26T01:59:23.401Z,10.50
2023-04-26T01:59:35.354Z,10.50
2023-04-26T01:59:47.162Z,10.60
2023-04-26T01:59:59.438Z,10.50
2023-04-26T02:00:11.635Z,10.50
2023-04-26T02:00:23.539Z,10.50
2023-04-26T02:00:35.353Z,10.50
2023-04-26T02:00:47.170Z,10.50
2023-04-26T02:01:05.754Z,10.50
2023-04-26T02:01:17.726Z,10.50
2023-04-26T02:01:29.621Z,10.50
2023-04-26T02:01:42.473Z,10.50
2023-04-26T02:01:54.365Z,10.50
2023-04-26T02:02:06.962Z,10.50
2023-04-26T02:02:19.045Z,10.60
2023-04-26T02:02:31.114Z,10.50
2023-04-26T02:02:43.251Z,10.50
2023-04-26T02:02:58.037Z,10.40
2023-04-26T02:03:10.079Z,10.40
2023-04-26T02:03:22.544Z,10.40
2023-04-26T02:03:34.887Z,10.40
2023-04-26T02:03:46.964Z,10.40
2023-04-26T02:03:58.818Z,10.40
2023-04-26T02:04:10.804Z,10.40
2023-04-26T02:04:24.177Z,10.40
2023-04-26T02:04:36.112Z,10.40
2023-04-26T02:04:48.005Z,10.40
2023-04-26T02:04:59.960Z,10.40
2023-04-26T02:05:12.509Z,10.40
2023-04-26T02:05:24.764Z,10.30
2023-04-26T02:05:36.699Z,10.40
2023-04-26T02:05:48.442Z,10.30
2023-04-26T02:06:00.219Z,10.30
2023-04-26T02:06:12.183Z,10.40
2023-04-26T02:06:24.069Z,10.30
2023-04-26T02:06:36.333Z,10.40
2023-04-26T02:06:48.116Z,10.30
2023-04-26T02:06:59.896Z,10.30
2023-04-26T02:07:11.824Z,10.30
2023-04-26T02:07:23.739Z,10.30
2023-04-26T02:07:35.569Z,10.20
2023-04-26T02:07:47.369Z,10.30
2023-04-26T02:07:59.411Z,10.30
2023-04-26T02:08:11.215Z,10.30
2023-04-26T02:08:22.985Z,10.30
2023-04-26T02:08:36.116Z,10.30
2023-04-26T02:08:47.982Z,10.30
2023-04-26T02:08:59.748Z,10.30
2023-04-26T02:09:11.749Z,10.30
2023-04-26T02:09:23.542Z,10.30
2023-04-26T02:09:35.319Z,10.30
2023-04-26T02:09:47.218Z,10.30
2023-04-26T02:09:58.972Z,10.30
2023-04-26T02:10:10.874Z,10.30
2023-04-26T02:10:22.711Z,10.30
2023-04-26T02:10:34.496Z,10.30
2023-04-26T02:10:46.289Z,10.30
2023-04-26T02:10:58.320Z,10.30
2023-04-26T02:11:10.244Z,10.30
2023-04-26T02:11:23.165Z,10.30
2023-04-26T02:11:35.383Z,10.30
2023-04-26T02:11:47.146Z,10.30
2023-04-26T02:11:58.904Z,10.30
2023-04-26T02:12:10.698Z,10.30
2023-04-26T02:12:22.688Z,10.30
2023-04-26T02:12:34.523Z,10.30
2023-04-26T02:12:46.387Z,10.30
2023-04-26T02:12:58.182Z,10.30
2023-04-26T02:13:09.954Z,10.30
2023-04-26T02:13:22.306Z,10.30
2023-04-26T02:13:34.196Z,10.30
2023-04-26T02:13:46.008Z,10.30
2023-04-26T02:13:57.858Z,10.30
2023-04-26T02:14:09.713Z,10.30
2023-04-26T02:14:21.788Z,10.30
2023-04-26T02:14:33.562Z,10.30
2023-04-26T02:14:45.423Z,10.30
2023-04-26T02:14:57.317Z,10.30
2023-04-26T02:15:09.404Z,10.30
2023-04-26T02:15:21.950Z,10.30
2023-04-26T02:15:33.757Z,10.30
2023-04-26T02:15:51.591Z,10.30
2023-04-26T02:16:03.590Z,10.40
2023-04-26T02:16:17.042Z,10.40
2023-04-26T02:16:29.016Z,10.30
2023-04-26T02:16:40.959Z,10.30
2023-04-26T02:16:52.975Z,10.30
2023-04-26T02:17:04.874Z,10.30
2023-04-26T02:17:17.408Z,10.30
2023-04-26T02:17:29.328Z,10.30
2023-04-26T02:17:41.207Z,10.30
2023-04-26T02:17:53.882Z,10.30
2023-04-26T02:18:05.866Z,10.30
2023-04-26T02:18:17.835Z,10.30
2023-04-26T02:18:29.819Z,10.40
2023-04-26T02:18:41.966Z,10.30
2023-04-26T02:18:54.063Z,10.40
2023-04-26T02:19:10.973Z,10.30
2023-04-26T02:19:22.842Z,10.30
2023-04-26T02:19:34.604Z,10.30
2023-04-26T02:19:46.541Z,10.30
2023-04-26T02:19:58.405Z,10.30
2023-04-26T02:20:11.501Z,10.30
2023-04-26T02:20:23.347Z,10.30
2023-04-26T02:20:36.165Z,10.30
2023-04-26T02:20:47.923Z,10.30
2023-04-26T02:20:59.770Z,10.30
2023-04-26T02:21:11.997Z,10.30
2023-04-26T02:21:23.839Z,10.30
2023-04-26T02:21:50.504Z,10.30
2023-04-26T02:22:02.416Z,10.30
2023-04-26T02:22:14.179Z,10.30
2023-04-26T02:22:26.549Z,10.30
2023-04-26T02:22:38.576Z,10.30
2023-04-26T02:22:50.432Z,10.30
2023-04-26T02:23:02.218Z,10.30
2023-04-26T02:23:13.992Z,10.30
2023-04-26T02:23:25.754Z,10.30
2023-04-26T02:23:37.537Z,10.30
2023-04-26T02:23:49.403Z,10.30
2023-04-26T02:24:01.201Z,10.30
2023-04-26T02:24:13.439Z,10.30
2023-04-26T02:24:25.511Z,10.30
2023-04-26T02:24:37.313Z,10.30
2023-04-26T02:24:50.211Z,10.30
2023-04-26T02:25:02.080Z,10.30
2023-04-26T02:25:13.897Z,10.30
2023-04-26T02:25:25.743Z,10.30
2023-04-26T02:25:37.679Z,10.30
2023-04-26T02:25:49.751Z,10.30
2023-04-26T02:26:01.608Z,10.30
2023-04-26T02:26:13.603Z,10.30
2023-04-26T02:26:27.008Z,10.30
2023-04-26T02:26:38.814Z,10.30
2023-04-26T02:26:50.852Z,10.30
2023-04-26T02:27:03.987Z,10.30
2023-04-26T02:27:15.950Z,10.30
2023-04-26T02:27:28.241Z,10.30
2023-04-26T02:27:40.051Z,10.30
2023-04-26T02:27:51.883Z,10.30
2023-04-26T02:28:04.538Z,10.30
2023-04-26T02:28:16.461Z,10.30
2023-04-26T02:28:28.314Z,10.30
2023-04-26T02:28:40.139Z,10.30
2023-04-26T02:28:52.193Z,10.30
2023-04-26T02:29:04.283Z,10.30
2023-04-26T02:29:16.669Z,10.30
2023-04-26T02:29:40.252Z,10.30
2023-04-26T02:29:55.467Z,10.30
2023-04-26T02:30:07.790Z,10.30
2023-04-26T02:30:19.640Z,10.30
2023-04-26T02:30:31.670Z,10.30
2023-04-26T02:30:43.671Z,10.30
2023-04-26T02:30:56.786Z,10.30
2023-04-26T02:31:09.103Z,10.30
2023-04-26T02:31:22.957Z,10.30
2023-04-26T02:31:35.055Z,10.30
2023-04-26T02:31:48.707Z,10.30
2023-04-26T02:32:00.531Z,10.30
2023-04-26T02:32:13.298Z,10.30
2023-04-26T02:32:25.193Z,10.30
2023-04-26T02:32:37.052Z,10.40
2023-04-26T02:32:48.889Z,10.40
2023-04-26T02:33:00.670Z,10.40
2023-04-26T02:33:12.457Z,10.40
2023-04-26T02:33:24.318Z,10.40
2023-04-26T02:33:36.158Z,10.40
2023-04-26T02:33:47.899Z,10.40
2023-04-26T02:33:59.723Z,10.40
2023-04-26T02:34:12.331Z,10.30
2023-04-26T02:34:24.168Z,10.30
2023-04-26T02:34:36.060Z,10.40
2023-04-26T02:34:47.902Z,10.30
2023-04-26T02:34:59.704Z,10.30
2023-04-26T02:35:11.507Z,10.30
2023-04-26T02:35:23.658Z,10.30
2023-04-26T02:35:36.882Z,10.30
2023-04-26T02:35:48.688Z,10.30
2023-04-26T02:36:04.233Z,10.30
2023-04-26T02:36:17.056Z,10.30
2023-04-26T02:36:28.987Z,10.30
2023-04-26T02:36:41.346Z,10.30
2023-04-26T02:36:53.115Z,10.30
2023-04-26T02:37:05.061Z,10.30
2023-04-26T02:37:17.080Z,10.30
2023-04-26T02:37:28.933Z,10.30
2023-04-26T02:37:40.778Z,10.30
2023-04-26T02:37:52.589Z,10.30